AXB3514 VOMM-VAAH
Flight info
| Callsign | AXB3514 |
|---|---|
| Flight time | N/A |
| Altitude | 34000 |
| Route | KAMGU2B KAMGU W20 HIA L518 MONPI DCT BODAR BODAR1A |
| Aircraft | B738/M-SDE2E3FGHIRWXY/LB1 |
Departure
| Time | 2026-04-25 05:15 |
|---|---|
| Airport | Chennai International Airport (VOMM) |
Arrival
| Time | N/A |
|---|---|
| Airport | Sardar Vallabh Patel International Airport (VAAH) |
| Time | Latitude | Longitude | Altitude | Speed | Heading |
|---|---|---|---|---|---|
| 2026-04-25 04:44 | 12.98248 | 80.16059 | 51 ft | 0 kts | 159° |
| 2026-04-25 05:01 | 12.98253 | 80.16058 | 51 ft | 2 kts | 160° |
| 2026-04-25 05:02 | 12.98266 | 80.16052 | 50 ft | 2 kts | 159° |
| 2026-04-25 05:02 | 12.98278 | 80.16048 | 50 ft | 0 kts | 160° |
| 2026-04-25 05:02 | 12.98290 | 80.16042 | 50 ft | 2 kts | 141° |
| 2026-04-25 05:02 | 12.98301 | 80.16031 | 49 ft | 2 kts | 123° |
| 2026-04-25 05:03 | 12.98307 | 80.16016 | 49 ft | 2 kts | 103° |
| 2026-04-25 05:03 | 12.98309 | 80.16001 | 49 ft | 2 kts | 84° |
| 2026-04-25 05:03 | 12.98307 | 80.15990 | 49 ft | 0 kts | 70° |
| 2026-04-25 05:03 | 12.98304 | 80.15983 | 49 ft | 0 kts | 68° |
| 2026-04-25 05:05 | 12.98307 | 80.15990 | 49 ft | 5 kts | 68° |
| 2026-04-25 05:06 | 12.98337 | 80.16073 | 49 ft | 14 kts | 70° |
| 2026-04-25 05:06 | 12.98356 | 80.16127 | 50 ft | 0 kts | 69° |
| 2026-04-25 05:06 | 12.98357 | 80.16129 | 50 ft | 2 kts | 69° |
| 2026-04-25 05:06 | 12.98370 | 80.16163 | 50 ft | 5 kts | 59° |
| 2026-04-25 05:07 | 12.98432 | 80.16157 | 47 ft | 13 kts | 338° |
| 2026-04-25 05:07 | 12.98506 | 80.16134 | 45 ft | 7 kts | 13° |
| 2026-04-25 05:07 | 12.98540 | 80.16170 | 45 ft | 6 kts | 62° |
| 2026-04-25 05:07 | 12.98561 | 80.16221 | 46 ft | 9 kts | 70° |
| 2026-04-25 05:08 | 12.98592 | 80.16302 | 46 ft | 15 kts | 69° |
| 2026-04-25 05:08 | 12.98636 | 80.16419 | 47 ft | 20 kts | 69° |
| 2026-04-25 05:08 | 12.98693 | 80.16570 | 47 ft | 25 kts | 69° |
| 2026-04-25 05:08 | 12.98762 | 80.16750 | 47 ft | 26 kts | 69° |
| 2026-04-25 05:09 | 12.98828 | 80.16926 | 48 ft | 25 kts | 68° |
| 2026-04-25 05:09 | 12.98891 | 80.17091 | 49 ft | 23 kts | 68° |
| 2026-04-25 05:09 | 12.98951 | 80.17234 | 49 ft | 20 kts | 57° |
| 2026-04-25 05:09 | 12.99014 | 80.17361 | 48 ft | 19 kts | 69° |
| 2026-04-25 05:10 | 12.99061 | 80.17487 | 49 ft | 18 kts | 69° |
| 2026-04-25 05:10 | 12.99106 | 80.17603 | 49 ft | 17 kts | 69° |
| 2026-04-25 05:10 | 12.99147 | 80.17714 | 49 ft | 15 kts | 67° |
| 2026-04-25 05:10 | 12.99183 | 80.17813 | 50 ft | 14 kts | 69° |
| 2026-04-25 05:11 | 12.99229 | 80.17858 | 50 ft | 5 kts | 352° |
| 2026-04-25 05:11 | 12.99259 | 80.17848 | 49 ft | 0 kts | 340° |
| 2026-04-25 05:13 | 12.99260 | 80.17847 | 49 ft | 1 kts | 340° |
| 2026-04-25 05:13 | 12.99305 | 80.17829 | 48 ft | 8 kts | 337° |
| 2026-04-25 05:13 | 12.99347 | 80.17788 | 47 ft | 9 kts | 272° |
| 2026-04-25 05:14 | 12.99328 | 80.17722 | 46 ft | 10 kts | 249° |
| 2026-04-25 05:14 | 12.99267 | 80.17559 | 44 ft | 47 kts | 248° |
| 2026-04-25 05:14 | 12.99061 | 80.17019 | 45 ft | 113 kts | 248° |
| 2026-04-25 05:15 | 12.98333 | 80.15001 | 156 ft | 160 kts | 249° |
| 2026-04-25 05:15 | 12.98070 | 80.13897 | 293 ft | 157 kts | 264° |
| 2026-04-25 05:15 | 12.98105 | 80.12777 | 348 ft | 166 kts | 275° |
| 2026-04-25 05:15 | 12.98327 | 80.11603 | 901 ft | 166 kts | 282° |
| 2026-04-25 05:16 | 12.98700 | 80.10576 | 1613 ft | 172 kts | 303° |
| 2026-04-25 05:16 | 12.99675 | 80.09705 | 1763 ft | 198 kts | 334° |
| 2026-04-25 05:16 | 13.01033 | 80.09239 | 2145 ft | 211 kts | 349° |
| 2026-04-25 05:16 | 13.02447 | 80.09060 | 3042 ft | 204 kts | 357° |
| 2026-04-25 05:17 | 13.03900 | 80.09016 | 3671 ft | 215 kts | 1° |
| 2026-04-25 05:17 | 13.05415 | 80.09036 | 4317 ft | 225 kts | 3° |
| 2026-04-25 05:17 | 13.06984 | 80.09232 | 4883 ft | 236 kts | 24° |
| 2026-04-25 05:17 | 13.08335 | 80.10189 | 5512 ft | 243 kts | 45° |
| 2026-04-25 05:18 | 13.09758 | 80.11282 | 5850 ft | 269 kts | 26° |
| 2026-04-25 05:18 | 13.11574 | 80.11843 | 5874 ft | 277 kts | 13° |
| 2026-04-25 05:18 | 13.13462 | 80.12253 | 5869 ft | 279 kts | 16° |
| 2026-04-25 05:18 | 13.15342 | 80.12820 | 5867 ft | 277 kts | 21° |
| 2026-04-25 05:19 | 13.17156 | 80.13522 | 5860 ft | 278 kts | 24° |
| 2026-04-25 05:19 | 13.18944 | 80.14282 | 5862 ft | 276 kts | 25° |
| 2026-04-25 05:19 | 13.20746 | 80.14992 | 5859 ft | 277 kts | 18° |
| 2026-04-25 05:19 | 13.22643 | 80.15253 | 5856 ft | 281 kts | 1° |
| 2026-04-25 05:20 | 13.24631 | 80.15110 | 5856 ft | 282 kts | 356° |
| 2026-04-25 05:20 | 13.26475 | 80.14899 | 5849 ft | 281 kts | 356° |
| 2026-04-25 05:20 | 13.28388 | 80.14707 | 5860 ft | 282 kts | 357° |
| 2026-04-25 05:20 | 13.30339 | 80.14552 | 5852 ft | 281 kts | 357° |
| 2026-04-25 05:21 | 13.32307 | 80.14229 | 5868 ft | 289 kts | 346° |
| 2026-04-25 05:21 | 13.34223 | 80.13509 | 6628 ft | 296 kts | 339° |
| 2026-04-25 05:21 | 13.36069 | 80.12651 | 7776 ft | 289 kts | 339° |
| 2026-04-25 05:21 | 13.37885 | 80.11796 | 8692 ft | 290 kts | 340° |
| 2026-04-25 05:22 | 13.39701 | 80.10967 | 9562 ft | 291 kts | 342° |
| 2026-04-25 05:22 | 13.41593 | 80.10133 | 10331 ft | 297 kts | 342° |
| 2026-04-25 05:22 | 13.43547 | 80.09290 | 10852 ft | 312 kts | 342° |
| 2026-04-25 05:22 | 13.45603 | 80.08408 | 11336 ft | 328 kts | 341° |
| 2026-04-25 05:23 | 13.47731 | 80.07493 | 11775 ft | 343 kts | 341° |
| 2026-04-25 05:23 | 13.49998 | 80.06514 | 12178 ft | 359 kts | 341° |
| 2026-04-25 05:23 | 13.52347 | 80.05497 | 12546 ft | 375 kts | 340° |
| 2026-04-25 05:23 | 13.54781 | 80.04441 | 13117 ft | 384 kts | 340° |
| 2026-04-25 05:24 | 13.57286 | 80.03351 | 13719 ft | 392 kts | 340° |
| 2026-04-25 05:24 | 13.59809 | 80.02252 | 14355 ft | 398 kts | 340° |
| 2026-04-25 05:24 | 13.62355 | 80.01144 | 14990 ft | 403 kts | 339° |
| 2026-04-25 05:24 | 13.64920 | 80.00028 | 15573 ft | 409 kts | 339° |
| 2026-04-25 05:25 | 13.67528 | 79.98893 | 16172 ft | 415 kts | 339° |
| 2026-04-25 05:25 | 13.70214 | 79.97724 | 16742 ft | 420 kts | 338° |
| 2026-04-25 05:25 | 13.72900 | 79.96556 | 17292 ft | 426 kts | 338° |
| 2026-04-25 05:25 | 13.75670 | 79.95351 | 17922 ft | 430 kts | 338° |
| 2026-04-25 05:26 | 13.78396 | 79.94164 | 18527 ft | 433 kts | 338° |
| 2026-04-25 05:26 | 13.81176 | 79.92954 | 19152 ft | 436 kts | 337° |
| 2026-04-25 05:26 | 13.83995 | 79.91727 | 19736 ft | 440 kts | 337° |
| 2026-04-25 05:26 | 13.86771 | 79.90519 | 20293 ft | 444 kts | 337° |
| 2026-04-25 05:27 | 13.89564 | 79.89303 | 20843 ft | 447 kts | 337° |
| 2026-04-25 05:27 | 13.92434 | 79.88053 | 21387 ft | 451 kts | 336° |
| 2026-04-25 05:27 | 13.95287 | 79.86810 | 21908 ft | 454 kts | 336° |
| 2026-04-25 05:27 | 13.98175 | 79.85551 | 22456 ft | 457 kts | 336° |
| 2026-04-25 05:28 | 14.01130 | 79.84264 | 22954 ft | 461 kts | 336° |
| 2026-04-25 05:28 | 14.04118 | 79.82961 | 23425 ft | 466 kts | 336° |
| 2026-04-25 05:28 | 14.07109 | 79.81656 | 23943 ft | 469 kts | 336° |
| 2026-04-25 05:28 | 14.10106 | 79.80348 | 24431 ft | 472 kts | 335° |
| 2026-04-25 05:29 | 14.13171 | 79.79010 | 24888 ft | 476 kts | 335° |
| 2026-04-25 05:29 | 14.16213 | 79.77681 | 25352 ft | 479 kts | 335° |
| 2026-04-25 05:29 | 14.19302 | 79.76332 | 25726 ft | 483 kts | 335° |
| 2026-04-25 05:29 | 14.22401 | 79.74978 | 26108 ft | 486 kts | 335° |
| 2026-04-25 05:30 | 14.25527 | 79.73611 | 26463 ft | 489 kts | 335° |
| 2026-04-25 05:30 | 14.28528 | 79.72299 | 26906 ft | 490 kts | 335° |
| 2026-04-25 05:30 | 14.31533 | 79.70985 | 27205 ft | 494 kts | 335° |
| 2026-04-25 05:30 | 14.34530 | 79.69673 | 27519 ft | 496 kts | 334° |
| 2026-04-25 05:31 | 14.37733 | 79.68271 | 27945 ft | 497 kts | 334° |
| 2026-04-25 05:31 | 14.40833 | 79.66914 | 28404 ft | 497 kts | 334° |
| 2026-04-25 05:31 | 14.43992 | 79.65533 | 28884 ft | 496 kts | 334° |
| 2026-04-25 05:31 | 14.47123 | 79.64162 | 29407 ft | 494 kts | 334° |
| 2026-04-25 05:32 | 14.50234 | 79.62801 | 29916 ft | 492 kts | 334° |
| 2026-04-25 05:32 | 14.53348 | 79.61437 | 30404 ft | 490 kts | 334° |
| 2026-04-25 05:32 | 14.56457 | 79.60073 | 30850 ft | 489 kts | 334° |
| 2026-04-25 05:32 | 14.59551 | 79.58716 | 31245 ft | 489 kts | 333° |
| 2026-04-25 05:33 | 14.62669 | 79.57347 | 31587 ft | 490 kts | 333° |
| 2026-04-25 05:33 | 14.65729 | 79.56003 | 31961 ft | 489 kts | 333° |
| 2026-04-25 05:33 | 14.68799 | 79.54655 | 32358 ft | 488 kts | 333° |
| 2026-04-25 05:33 | 14.71853 | 79.53315 | 32812 ft | 486 kts | 333° |
| 2026-04-25 05:34 | 14.74893 | 79.51981 | 33257 ft | 485 kts | 333° |
| 2026-04-25 05:34 | 14.77892 | 79.50664 | 33744 ft | 482 kts | 333° |
| 2026-04-25 05:34 | 14.80938 | 79.49327 | 34294 ft | 478 kts | 333° |
| 2026-04-25 05:34 | 14.83958 | 79.48002 | 34833 ft | 474 kts | 333° |
| 2026-04-25 05:35 | 14.86899 | 79.46709 | 35321 ft | 471 kts | 332° |
| 2026-04-25 05:35 | 14.89926 | 79.45378 | 35776 ft | 468 kts | 332° |
| 2026-04-25 05:35 | 14.92900 | 79.44068 | 35868 ft | 471 kts | 332° |
| 2026-04-25 05:36 | 14.98696 | 79.41511 | 35871 ft | 470 kts | 332° |
| 2026-04-25 05:36 | 15.04538 | 79.38905 | 35874 ft | 470 kts | 332° |
| 2026-04-25 05:37 | 15.10515 | 79.36220 | 35876 ft | 469 kts | 332° |
| 2026-04-25 05:37 | 15.16399 | 79.33575 | 35880 ft | 469 kts | 332° |